La Jara, Colorado
Current Conditions -  °F | °C
As of 8:52 PM on Sunday 25 Jan 2015 (Local Time) from KALS Reporting Station
Clear Clear  
Wind Chill: 14°   Ceiling: Unl
Heat Index: 22°   Visibility: 10mi
Dew Point: 16°   Wind: 6mph
Humidity: 78%   Direction: 310°NW
Pressure: 30.34"   Gusts: NA
Location:  37.28°N, 105.96°W
Report Text: KALS 260352Z AUTO 31005KT 10SM CLR M06/M09 A3034 RMK AO2 SLP314 T10561089
Loading
Personal Weather Stations






























Interactive Weather Map New forecast layout! Learn more

10-Day Weather Forecast

Advertisements
Track Severe Weather on mobile